sensor_id;sensor_type;location;lat;lon;timestamp;P1;durP1;ratioP1;P2;durP2;ratioP2
57309;SDS011;43153;50.984;18.204;2023-02-10T00:01:21;27.40;;;11.10;;
57309;SDS011;43153;50.984;18.204;2023-02-10T00:03:47;35.80;;;12.20;;
57309;SDS011;43153;50.984;18.204;2023-02-10T00:06:15;38.20;;;12.40;;
57309;SDS011;43153;50.984;18.204;2023-02-10T00:08:41;31.20;;;13.00;;
57309;SDS011;43153;50.984;18.204;2023-02-10T00:11:10;30.90;;;10.60;;
57309;SDS011;43153;50.984;18.204;2023-02-10T00:13:37;30.80;;;12.20;;
57309;SDS011;43153;50.984;18.204;2023-02-10T00:16:03;32.20;;;10.50;;
57309;SDS011;43153;50.984;18.204;2023-02-10T00:18:33;31.30;;;12.10;;
57309;SDS011;43153;50.984;18.204;2023-02-10T00:21:09;30.30;;;11.60;;
57309;SDS011;43153;50.984;18.204;2023-02-10T00:23:45;29.20;;;11.30;;
57309;SDS011;43153;50.984;18.204;2023-02-10T00:26:12;27.90;;;10.90;;
57309;SDS011;43153;50.984;18.204;2023-02-10T00:28:38;28.80;;;11.80;;
57309;SDS011;43153;50.984;18.204;2023-02-10T00:31:08;30.40;;;12.20;;
57309;SDS011;43153;50.984;18.204;2023-02-10T00:33:34;27.30;;;10.90;;
57309;SDS011;43153;50.984;18.204;2023-02-10T00:36:03;33.90;;;12.80;;
57309;SDS011;43153;50.984;18.204;2023-02-10T00:38:29;36.30;;;13.10;;
57309;SDS011;43153;50.984;18.204;2023-02-10T00:40:55;34.70;;;13.30;;
57309;SDS011;43153;50.984;18.204;2023-02-10T00:43:21;30.80;;;12.40;;
57309;SDS011;43153;50.984;18.204;2023-02-10T00:45:49;29.10;;;12.40;;
57309;SDS011;43153;50.984;18.204;2023-02-10T00:48:16;30.80;;;12.80;;
57309;SDS011;43153;50.984;18.204;2023-02-10T00:50:42;31.60;;;12.70;;
57309;SDS011;43153;50.984;18.204;2023-02-10T00:53:08;32.50;;;12.30;;
57309;SDS011;43153;50.984;18.204;2023-02-10T00:55:34;33.00;;;14.30;;
57309;SDS011;43153;50.984;18.204;2023-02-10T00:58:01;40.20;;;17.10;;
57309;SDS011;43153;50.984;18.204;2023-02-10T01:00:27;59.40;;;22.90;;
57309;SDS011;43153;50.984;18.204;2023-02-10T01:02:53;53.40;;;22.30;;
57309;SDS011;43153;50.984;18.204;2023-02-10T01:05:19;55.90;;;20.90;;
57309;SDS011;43153;50.984;18.204;2023-02-10T01:07:47;61.00;;;26.30;;
57309;SDS011;43153;50.984;18.204;2023-02-10T01:10:16;58.60;;;25.90;;
57309;SDS011;43153;50.984;18.204;2023-02-10T01:12:42;62.10;;;21.70;;
57309;SDS011;43153;50.984;18.204;2023-02-10T01:15:09;35.80;;;15.30;;
57309;SDS011;43153;50.984;18.204;2023-02-10T01:17:38;35.50;;;13.40;;
57309;SDS011;43153;50.984;18.204;2023-02-10T01:20:05;27.70;;;12.50;;
57309;SDS011;43153;50.984;18.204;2023-02-10T01:22:32;27.00;;;12.00;;
57309;SDS011;43153;50.984;18.204;2023-02-10T01:24:59;27.80;;;11.30;;
57309;SDS011;43153;50.984;18.204;2023-02-10T01:27:25;26.40;;;11.10;;
57309;SDS011;43153;50.984;18.204;2023-02-10T01:29:53;27.50;;;10.70;;
57309;SDS011;43153;50.984;18.204;2023-02-10T01:32:19;31.90;;;10.60;;
57309;SDS011;43153;50.984;18.204;2023-02-10T01:34:50;31.40;;;11.60;;
57309;SDS011;43153;50.984;18.204;2023-02-10T01:37:16;33.80;;;11.60;;
57309;SDS011;43153;50.984;18.204;2023-02-10T01:39:45;27.30;;;11.00;;
57309;SDS011;43153;50.984;18.204;2023-02-10T01:42:12;32.00;;;11.10;;
57309;SDS011;43153;50.984;18.204;2023-02-10T01:47:08;29.70;;;10.90;;
57309;SDS011;43153;50.984;18.204;2023-02-10T01:49:37;28.20;;;10.80;;
57309;SDS011;43153;50.984;18.204;2023-02-10T01:52:07;31.20;;;10.80;;
57309;SDS011;43153;50.984;18.204;2023-02-10T01:54:40;23.90;;;10.20;;
57309;SDS011;43153;50.984;18.204;2023-02-10T01:57:10;22.90;;;10.90;;
57309;SDS011;43153;50.984;18.204;2023-02-10T01:59:41;27.50;;;10.10;;
57309;SDS011;43153;50.984;18.204;2023-02-10T02:02:08;28.20;;;10.40;;
57309;SDS011;43153;50.984;18.204;2023-02-10T02:04:38;25.80;;;10.50;;
57309;SDS011;43153;50.984;18.204;2023-02-10T02:07:06;30.80;;;11.80;;
57309;SDS011;43153;50.984;18.204;2023-02-10T02:09:32;29.70;;;10.70;;
57309;SDS011;43153;50.984;18.204;2023-02-10T02:14:49;28.80;;;11.00;;
57309;SDS011;43153;50.984;18.204;2023-02-10T03:03:24;24.70;;;11.30;;
57309;SDS011;43153;50.984;18.204;2023-02-10T03:06:00;29.70;;;10.70;;
57309;SDS011;43153;50.984;18.204;2023-02-10T03:08:27;26.70;;;11.60;;
57309;SDS011;43153;50.984;18.204;2023-02-10T03:10:54;36.00;;;10.80;;
57309;SDS011;43153;50.984;18.204;2023-02-10T03:13:20;26.70;;;11.10;;
57309;SDS011;43153;50.984;18.204;2023-02-10T03:15:46;31.70;;;10.90;;
57309;SDS011;43153;50.984;18.204;2023-02-10T03:18:12;28.00;;;10.80;;
57309;SDS011;43153;50.984;18.204;2023-02-10T03:20:39;29.70;;;11.70;;
57309;SDS011;43153;50.984;18.204;2023-02-10T03:23:05;30.80;;;11.80;;
57309;SDS011;43153;50.984;18.204;2023-02-10T03:25:37;25.70;;;10.10;;
57309;SDS011;43153;50.984;18.204;2023-02-10T03:28:08;39.80;;;13.10;;
57309;SDS011;43153;50.984;18.204;2023-02-10T03:30:33;28.40;;;10.40;;
57309;SDS011;43153;50.984;18.204;2023-02-10T03:33:00;29.70;;;10.10;;
57309;SDS011;43153;50.984;18.204;2023-02-10T03:35:26;29.90;;;10.70;;
57309;SDS011;43153;50.984;18.204;2023-02-10T03:37:52;31.60;;;12.20;;
57309;SDS011;43153;50.984;18.204;2023-02-10T03:40:20;30.50;;;11.20;;
57309;SDS011;43153;50.984;18.204;2023-02-10T03:42:49;27.40;;;11.50;;
57309;SDS011;43153;50.984;18.204;2023-02-10T03:45:18;26.90;;;10.10;;
57309;SDS011;43153;50.984;18.204;2023-02-10T03:47:44;32.40;;;11.70;;
57309;SDS011;43153;50.984;18.204;2023-02-10T03:50:12;30.90;;;11.80;;
57309;SDS011;43153;50.984;18.204;2023-02-10T03:52:38;27.10;;;11.00;;
57309;SDS011;43153;50.984;18.204;2023-02-10T03:55:06;25.90;;;11.10;;
57309;SDS011;43153;50.984;18.204;2023-02-10T03:57:33;29.00;;;10.80;;
57309;SDS011;43153;50.984;18.204;2023-02-10T04:00:00;35.00;;;11.30;;
57309;SDS011;43153;50.984;18.204;2023-02-10T04:02:27;28.50;;;11.30;;
57309;SDS011;43153;50.984;18.204;2023-02-10T04:04:53;28.50;;;10.90;;
57309;SDS011;43153;50.984;18.204;2023-02-10T04:07:25;32.70;;;11.00;;
57309;SDS011;43153;50.984;18.204;2023-02-10T04:09:51;28.50;;;12.30;;
57309;SDS011;43153;50.984;18.204;2023-02-10T04:12:19;38.50;;;14.30;;
57309;SDS011;43153;50.984;18.204;2023-02-10T04:14:46;30.10;;;13.70;;
57309;SDS011;43153;50.984;18.204;2023-02-10T04:17:14;34.10;;;14.80;;
57309;SDS011;43153;50.984;18.204;2023-02-10T04:19:40;35.10;;;13.80;;
57309;SDS011;43153;50.984;18.204;2023-02-10T04:22:08;30.70;;;10.90;;
57309;SDS011;43153;50.984;18.204;2023-02-10T04:24:34;29.40;;;11.30;;
57309;SDS011;43153;50.984;18.204;2023-02-10T04:27:00;37.30;;;10.80;;
57309;SDS011;43153;50.984;18.204;2023-02-10T04:29:26;32.50;;;11.50;;
57309;SDS011;43153;50.984;18.204;2023-02-10T04:31:52;27.00;;;11.40;;
57309;SDS011;43153;50.984;18.204;2023-02-10T04:34:20;36.20;;;12.80;;
57309;SDS011;43153;50.984;18.204;2023-02-10T04:36:47;46.40;;;16.40;;
57309;SDS011;43153;50.984;18.204;2023-02-10T04:39:13;33.10;;;13.00;;
57309;SDS011;43153;50.984;18.204;2023-02-10T04:41:39;40.10;;;12.50;;
57309;SDS011;43153;50.984;18.204;2023-02-10T04:44:06;53.50;;;17.90;;
57309;SDS011;43153;50.984;18.204;2023-02-10T04:46:32;138.60;;;39.80;;
57309;SDS011;43153;50.984;18.204;2023-02-10T04:48:59;269.90;;;71.10;;
57309;SDS011;43153;50.984;18.204;2023-02-10T04:51:27;214.50;;;55.10;;
57309;SDS011;43153;50.984;18.204;2023-02-10T04:53:53;119.50;;;36.50;;
57309;SDS011;43153;50.984;18.204;2023-02-10T04:56:19;76.00;;;21.90;;
57309;SDS011;43153;50.984;18.204;2023-02-10T04:58:45;92.60;;;25.30;;
57309;SDS011;43153;50.984;18.204;2023-02-10T05:01:13;55.60;;;19.20;;
57309;SDS011;43153;50.984;18.204;2023-02-10T05:03:40;47.40;;;16.70;;
57309;SDS011;43153;50.984;18.204;2023-02-10T05:06:09;58.50;;;18.90;;
57309;SDS011;43153;50.984;18.204;2023-02-10T05:08:37;77.30;;;23.00;;
57309;SDS011;43153;50.984;18.204;2023-02-10T05:11:11;174.50;;;46.30;;
57309;SDS011;43153;50.984;18.204;2023-02-10T05:13:39;225.10;;;61.00;;
57309;SDS011;43153;50.984;18.204;2023-02-10T05:16:05;193.50;;;48.90;;
57309;SDS011;43153;50.984;18.204;2023-02-10T05:18:33;185.00;;;49.70;;
57309;SDS011;43153;50.984;18.204;2023-02-10T05:21:01;129.50;;;37.30;;
57309;SDS011;43153;50.984;18.204;2023-02-10T05:23:32;128.60;;;37.10;;
57309;SDS011;43153;50.984;18.204;2023-02-10T05:26:03;104.30;;;29.40;;
57309;SDS011;43153;50.984;18.204;2023-02-10T05:28:32;104.90;;;30.40;;
57309;SDS011;43153;50.984;18.204;2023-02-10T05:31:01;139.90;;;39.30;;
57309;SDS011;43153;50.984;18.204;2023-02-10T05:33:34;124.10;;;36.20;;
57309;SDS011;43153;50.984;18.204;2023-02-10T05:36:01;89.70;;;24.60;;
57309;SDS011;43153;50.984;18.204;2023-02-10T05:38:27;54.20;;;17.70;;
57309;SDS011;43153;50.984;18.204;2023-02-10T05:40:53;53.80;;;17.90;;
57309;SDS011;43153;50.984;18.204;2023-02-10T05:43:19;109.10;;;34.90;;
57309;SDS011;43153;50.984;18.204;2023-02-10T05:45:46;202.00;;;59.70;;
57309;SDS011;43153;50.984;18.204;2023-02-10T05:48:13;184.20;;;51.00;;
57309;SDS011;43153;50.984;18.204;2023-02-10T05:50:41;155.90;;;44.10;;
57309;SDS011;43153;50.984;18.204;2023-02-10T05:53:10;158.10;;;45.20;;
57309;SDS011;43153;50.984;18.204;2023-02-10T05:55:38;157.50;;;49.30;;
57309;SDS011;43153;50.984;18.204;2023-02-10T05:58:03;119.30;;;34.70;;
57309;SDS011;43153;50.984;18.204;2023-02-10T06:00:29;79.50;;;24.90;;
57309;SDS011;43153;50.984;18.204;2023-02-10T06:02:55;69.00;;;21.30;;
57309;SDS011;43153;50.984;18.204;2023-02-10T06:05:21;62.10;;;20.20;;
57309;SDS011;43153;50.984;18.204;2023-02-10T06:07:46;61.50;;;20.00;;
57309;SDS011;43153;50.984;18.204;2023-02-10T06:10:15;58.80;;;20.20;;
57309;SDS011;43153;50.984;18.204;2023-02-10T06:12:41;61.40;;;18.10;;
57309;SDS011;43153;50.984;18.204;2023-02-10T06:15:10;54.40;;;18.10;;
57309;SDS011;43153;50.984;18.204;2023-02-10T06:17:40;58.90;;;19.20;;
57309;SDS011;43153;50.984;18.204;2023-02-10T06:20:06;52.90;;;19.60;;
57309;SDS011;43153;50.984;18.204;2023-02-10T06:22:33;54.50;;;19.60;;
57309;SDS011;43153;50.984;18.204;2023-02-10T06:25:09;88.90;;;30.40;;
57309;SDS011;43153;50.984;18.204;2023-02-10T06:27:36;81.00;;;26.00;;
57309;SDS011;43153;50.984;18.204;2023-02-10T06:30:03;76.40;;;27.40;;
57309;SDS011;43153;50.984;18.204;2023-02-10T06:32:32;102.10;;;31.00;;
57309;SDS011;43153;50.984;18.204;2023-02-10T06:35:00;120.40;;;43.00;;
57309;SDS011;43153;50.984;18.204;2023-02-10T06:37:28;120.90;;;39.50;;
57309;SDS011;43153;50.984;18.204;2023-02-10T06:39:56;99.00;;;31.50;;
57309;SDS011;43153;50.984;18.204;2023-02-10T06:42:21;65.30;;;26.20;;
57309;SDS011;43153;50.984;18.204;2023-02-10T06:44:48;65.60;;;23.60;;
57309;SDS011;43153;50.984;18.204;2023-02-10T06:47:17;80.60;;;25.80;;
57309;SDS011;43153;50.984;18.204;2023-02-10T06:49:51;79.60;;;26.50;;
57309;SDS011;43153;50.984;18.204;2023-02-10T06:52:20;79.10;;;27.30;;
57309;SDS011;43153;50.984;18.204;2023-02-10T06:54:50;83.80;;;26.60;;
57309;SDS011;43153;50.984;18.204;2023-02-10T06:57:34;49.90;;;20.60;;
57309;SDS011;43153;50.984;18.204;2023-02-10T07:00:09;44.60;;;16.40;;
57309;SDS011;43153;50.984;18.204;2023-02-10T07:02:40;32.50;;;13.10;;
57309;SDS011;43153;50.984;18.204;2023-02-10T07:05:07;33.10;;;13.00;;
57309;SDS011;43153;50.984;18.204;2023-02-10T07:07:37;32.10;;;12.10;;
57309;SDS011;43153;50.984;18.204;2023-02-10T07:10:04;28.10;;;12.40;;
57309;SDS011;43153;50.984;18.204;2023-02-10T07:12:35;31.90;;;13.30;;
57309;SDS011;43153;50.984;18.204;2023-02-10T07:15:05;33.90;;;13.10;;
57309;SDS011;43153;50.984;18.204;2023-02-10T07:17:31;35.80;;;13.90;;
57309;SDS011;43153;50.984;18.204;2023-02-10T07:19:58;37.10;;;14.70;;
57309;SDS011;43153;50.984;18.204;2023-02-10T07:22:24;32.30;;;13.10;;
57309;SDS011;43153;50.984;18.204;2023-02-10T07:24:51;32.40;;;13.00;;
57309;SDS011;43153;50.984;18.204;2023-02-10T07:27:19;31.10;;;12.70;;
57309;SDS011;43153;50.984;18.204;2023-02-10T07:29:46;28.90;;;13.00;;
57309;SDS011;43153;50.984;18.204;2023-02-10T07:32:12;32.10;;;12.90;;
57309;SDS011;43153;50.984;18.204;2023-02-10T07:34:39;36.20;;;12.90;;
57309;SDS011;43153;50.984;18.204;2023-02-10T07:37:07;51.50;;;13.70;;
57309;SDS011;43153;50.984;18.204;2023-02-10T07:39:38;34.50;;;12.90;;
57309;SDS011;43153;50.984;18.204;2023-02-10T07:42:05;33.20;;;12.90;;
57309;SDS011;43153;50.984;18.204;2023-02-10T07:44:50;32.60;;;13.60;;
57309;SDS011;43153;50.984;18.204;2023-02-10T07:47:39;39.00;;;13.70;;
57309;SDS011;43153;50.984;18.204;2023-02-10T07:50:30;34.70;;;13.00;;
57309;SDS011;43153;50.984;18.204;2023-02-10T07:53:20;31.50;;;13.50;;
57309;SDS011;43153;50.984;18.204;2023-02-10T07:56:13;30.50;;;12.20;;
57309;SDS011;43153;50.984;18.204;2023-02-10T07:59:11;32.30;;;14.20;;
57309;SDS011;43153;50.984;18.204;2023-02-10T08:02:01;30.40;;;13.10;;
57309;SDS011;43153;50.984;18.204;2023-02-10T08:04:47;35.00;;;13.00;;
57309;SDS011;43153;50.984;18.204;2023-02-10T08:07:33;36.30;;;13.20;;
57309;SDS011;43153;50.984;18.204;2023-02-10T08:09:58;37.00;;;15.40;;
57309;SDS011;43153;50.984;18.204;2023-02-10T08:12:24;39.50;;;15.70;;
57309;SDS011;43153;50.984;18.204;2023-02-10T08:14:50;38.70;;;16.40;;
57309;SDS011;43153;50.984;18.204;2023-02-10T08:17:19;42.80;;;15.90;;
57309;SDS011;43153;50.984;18.204;2023-02-10T08:19:46;36.00;;;15.00;;
57309;SDS011;43153;50.984;18.204;2023-02-10T08:22:12;38.10;;;15.00;;
57309;SDS011;43153;50.984;18.204;2023-02-10T08:24:39;37.30;;;14.40;;
57309;SDS011;43153;50.984;18.204;2023-02-10T08:27:07;35.50;;;14.80;;
57309;SDS011;43153;50.984;18.204;2023-02-10T08:29:34;38.20;;;15.20;;
57309;SDS011;43153;50.984;18.204;2023-02-10T08:32:02;34.40;;;13.50;;
57309;SDS011;43153;50.984;18.204;2023-02-10T08:34:29;30.60;;;12.90;;
57309;SDS011;43153;50.984;18.204;2023-02-10T08:36:55;35.90;;;14.10;;
57309;SDS011;43153;50.984;18.204;2023-02-10T08:39:21;31.60;;;13.30;;
57309;SDS011;43153;50.984;18.204;2023-02-10T08:41:52;32.70;;;13.50;;
57309;SDS011;43153;50.984;18.204;2023-02-10T08:44:18;32.40;;;12.30;;
57309;SDS011;43153;50.984;18.204;2023-02-10T08:46:45;37.60;;;14.00;;
57309;SDS011;43153;50.984;18.204;2023-02-10T08:49:11;33.90;;;13.70;;
57309;SDS011;43153;50.984;18.204;2023-02-10T08:51:42;27.70;;;13.60;;
57309;SDS011;43153;50.984;18.204;2023-02-10T09:32:31;29.90;;;14.20;;
57309;SDS011;43153;50.984;18.204;2023-02-10T09:34:58;32.20;;;13.30;;
57309;SDS011;43153;50.984;18.204;2023-02-10T09:37:24;32.20;;;14.30;;
57309;SDS011;43153;50.984;18.204;2023-02-10T09:39:51;31.30;;;12.60;;
57309;SDS011;43153;50.984;18.204;2023-02-10T09:42:21;33.80;;;15.30;;
57309;SDS011;43153;50.984;18.204;2023-02-10T09:45:11;34.20;;;15.40;;
57309;SDS011;43153;50.984;18.204;2023-02-10T09:47:50;42.10;;;15.60;;
57309;SDS011;43153;50.984;18.204;2023-02-10T10:03:48;35.50;;;14.00;;
57309;SDS011;43153;50.984;18.204;2023-02-10T10:06:23;38.40;;;15.30;;
57309;SDS011;43153;50.984;18.204;2023-02-10T10:14:03;35.10;;;15.80;;
57309;SDS011;43153;50.984;18.204;2023-02-10T10:19:32;32.30;;;13.70;;
57309;SDS011;43153;50.984;18.204;2023-02-10T10:36:05;36.40;;;15.10;;
57309;SDS011;43153;50.984;18.204;2023-02-10T10:38:32;34.60;;;13.00;;
57309;SDS011;43153;50.984;18.204;2023-02-10T10:41:02;33.40;;;14.00;;
57309;SDS011;43153;50.984;18.204;2023-02-10T10:43:52;36.80;;;15.50;;
57309;SDS011;43153;50.984;18.204;2023-02-10T10:48:56;37.90;;;15.80;;
57309;SDS011;43153;50.984;18.204;2023-02-10T10:51:25;33.60;;;14.60;;
57309;SDS011;43153;50.984;18.204;2023-02-10T10:54:04;40.20;;;15.70;;
57309;SDS011;43153;50.984;18.204;2023-02-10T10:56:48;39.50;;;14.60;;
57309;SDS011;43153;50.984;18.204;2023-02-10T11:02:14;39.40;;;16.20;;
57309;SDS011;43153;50.984;18.204;2023-02-10T11:05:08;36.30;;;15.30;;
57309;SDS011;43153;50.984;18.204;2023-02-10T11:07:38;38.50;;;16.10;;
57309;SDS011;43153;50.984;18.204;2023-02-10T11:10:06;35.20;;;15.60;;
57309;SDS011;43153;50.984;18.204;2023-02-10T11:12:44;32.90;;;14.80;;
57309;SDS011;43153;50.984;18.204;2023-02-10T11:18:14;33.20;;;13.50;;
57309;SDS011;43153;50.984;18.204;2023-02-10T11:20:54;30.20;;;13.20;;
57309;SDS011;43153;50.984;18.204;2023-02-10T11:23:34;33.20;;;13.20;;
57309;SDS011;43153;50.984;18.204;2023-02-10T11:26:28;31.20;;;11.50;;
57309;SDS011;43153;50.984;18.204;2023-02-10T11:28:55;33.20;;;12.20;;
57309;SDS011;43153;50.984;18.204;2023-02-10T11:31:36;26.80;;;12.20;;
57309;SDS011;43153;50.984;18.204;2023-02-10T11:34:04;29.90;;;11.70;;
57309;SDS011;43153;50.984;18.204;2023-02-10T11:36:42;27.30;;;11.90;;
57309;SDS011;43153;50.984;18.204;2023-02-10T11:42:18;27.60;;;10.80;;
57309;SDS011;43153;50.984;18.204;2023-02-10T11:47:30;25.80;;;11.10;;
57309;SDS011;43153;50.984;18.204;2023-02-10T11:49:59;25.00;;;11.20;;
57309;SDS011;43153;50.984;18.204;2023-02-10T11:52:26;25.60;;;10.80;;
57309;SDS011;43153;50.984;18.204;2023-02-10T11:54:59;23.90;;;10.20;;
57309;SDS011;43153;50.984;18.204;2023-02-10T11:57:42;29.10;;;11.70;;
57309;SDS011;43153;50.984;18.204;2023-02-10T12:00:54;28.10;;;10.30;;
57309;SDS011;43153;50.984;18.204;2023-02-10T12:20:55;26.10;;;10.60;;
57309;SDS011;43153;50.984;18.204;2023-02-10T12:37:52;33.50;;;14.20;;
57309;SDS011;43153;50.984;18.204;2023-02-10T12:51:29;36.60;;;14.40;;
57309;SDS011;43153;50.984;18.204;2023-02-10T12:54:16;34.60;;;14.40;;
57309;SDS011;43153;50.984;18.204;2023-02-10T12:56:45;34.70;;;14.10;;
57309;SDS011;43153;50.984;18.204;2023-02-10T12:59:36;29.40;;;13.10;;
57309;SDS011;43153;50.984;18.204;2023-02-10T13:02:14;33.60;;;14.70;;
57309;SDS011;43153;50.984;18.204;2023-02-10T13:04:46;34.10;;;13.70;;
57309;SDS011;43153;50.984;18.204;2023-02-10T13:07:25;36.00;;;14.00;;
57309;SDS011;43153;50.984;18.204;2023-02-10T13:12:36;34.80;;;14.40;;
57309;SDS011;43153;50.984;18.204;2023-02-10T13:17:51;31.80;;;13.10;;
57309;SDS011;43153;50.984;18.204;2023-02-10T13:23:13;33.20;;;12.50;;
57309;SDS011;43153;50.984;18.204;2023-02-10T13:25:53;34.90;;;15.20;;
57309;SDS011;43153;50.984;18.204;2023-02-10T13:35:18;34.90;;;14.40;;
57309;SDS011;43153;50.984;18.204;2023-02-10T13:38:20;31.50;;;13.10;;
57309;SDS011;43153;50.984;18.204;2023-02-10T13:40:57;36.30;;;14.10;;
57309;SDS011;43153;50.984;18.204;2023-02-10T13:43:44;36.40;;;14.20;;
57309;SDS011;43153;50.984;18.204;2023-02-10T13:46:20;40.90;;;15.70;;
57309;SDS011;43153;50.984;18.204;2023-02-10T13:48:54;41.10;;;13.60;;
57309;SDS011;43153;50.984;18.204;2023-02-10T13:51:28;33.30;;;15.10;;
57309;SDS011;43153;50.984;18.204;2023-02-10T13:53:59;36.50;;;14.80;;
57309;SDS011;43153;50.984;18.204;2023-02-10T13:56:32;32.90;;;14.70;;
57309;SDS011;43153;50.984;18.204;2023-02-10T14:01:35;30.40;;;11.90;;
57309;SDS011;43153;50.984;18.204;2023-02-10T14:06:56;36.20;;;14.60;;
57309;SDS011;43153;50.984;18.204;2023-02-10T14:12:00;44.20;;;18.10;;
57309;SDS011;43153;50.984;18.204;2023-02-10T14:17:01;43.30;;;15.70;;
57309;SDS011;43153;50.984;18.204;2023-02-10T14:19:32;37.50;;;15.40;;
57309;SDS011;43153;50.984;18.204;2023-02-10T14:21:58;42.70;;;16.40;;
57309;SDS011;43153;50.984;18.204;2023-02-10T14:24:28;45.00;;;18.10;;
57309;SDS011;43153;50.984;18.204;2023-02-10T14:27:13;44.10;;;18.10;;
57309;SDS011;43153;50.984;18.204;2023-02-10T14:29:46;44.90;;;17.50;;
57309;SDS011;43153;50.984;18.204;2023-02-10T14:32:44;44.80;;;18.00;;
57309;SDS011;43153;50.984;18.204;2023-02-10T14:35:15;43.40;;;15.20;;
57309;SDS011;43153;50.984;18.204;2023-02-10T14:38:00;39.90;;;16.50;;
57309;SDS011;43153;50.984;18.204;2023-02-10T14:40:43;44.80;;;17.90;;
57309;SDS011;43153;50.984;18.204;2023-02-10T14:43:11;41.40;;;17.70;;
57309;SDS011;43153;50.984;18.204;2023-02-10T14:45:41;47.20;;;19.30;;
57309;SDS011;43153;50.984;18.204;2023-02-10T14:48:14;47.30;;;17.90;;
57309;SDS011;43153;50.984;18.204;2023-02-10T14:50:57;44.50;;;16.90;;
57309;SDS011;43153;50.984;18.204;2023-02-10T14:53:36;43.90;;;17.60;;
57309;SDS011;43153;50.984;18.204;2023-02-10T14:56:13;38.40;;;15.80;;
57309;SDS011;43153;50.984;18.204;2023-02-10T14:58:43;40.50;;;17.50;;
57309;SDS011;43153;50.984;18.204;2023-02-10T15:01:16;46.40;;;17.50;;
57309;SDS011;43153;50.984;18.204;2023-02-10T15:03:46;38.90;;;15.40;;
57309;SDS011;43153;50.984;18.204;2023-02-10T15:06:13;38.90;;;15.70;;
57309;SDS011;43153;50.984;18.204;2023-02-10T15:11:26;38.70;;;12.90;;
57309;SDS011;43153;50.984;18.204;2023-02-10T15:14:16;47.80;;;16.70;;
57309;SDS011;43153;50.984;18.204;2023-02-10T15:16:46;43.30;;;17.20;;
57309;SDS011;43153;50.984;18.204;2023-02-10T15:19:13;43.60;;;16.40;;
57309;SDS011;43153;50.984;18.204;2023-02-10T15:21:40;41.60;;;16.80;;
57309;SDS011;43153;50.984;18.204;2023-02-10T16:02:03;47.10;;;17.00;;
57309;SDS011;43153;50.984;18.204;2023-02-10T16:04:33;39.70;;;14.20;;
57309;SDS011;43153;50.984;18.204;2023-02-10T16:07:01;39.60;;;16.20;;
57309;SDS011;43153;50.984;18.204;2023-02-10T16:09:28;44.30;;;16.90;;
57309;SDS011;43153;50.984;18.204;2023-02-10T16:11:59;44.90;;;17.00;;
57309;SDS011;43153;50.984;18.204;2023-02-10T16:14:32;42.80;;;16.00;;
57309;SDS011;43153;50.984;18.204;2023-02-10T16:16:58;49.50;;;17.40;;
57309;SDS011;43153;50.984;18.204;2023-02-10T16:19:27;40.90;;;15.60;;
57309;SDS011;43153;50.984;18.204;2023-02-10T16:21:55;35.20;;;14.30;;
57309;SDS011;43153;50.984;18.204;2023-02-10T16:24:21;34.20;;;15.60;;
57309;SDS011;43153;50.984;18.204;2023-02-10T16:26:54;40.50;;;15.20;;
57309;SDS011;43153;50.984;18.204;2023-02-10T16:29:25;47.60;;;15.80;;
57309;SDS011;43153;50.984;18.204;2023-02-10T16:31:54;34.20;;;14.60;;
57309;SDS011;43153;50.984;18.204;2023-02-10T16:34:21;38.80;;;15.30;;
57309;SDS011;43153;50.984;18.204;2023-02-10T16:36:47;38.80;;;16.30;;
57309;SDS011;43153;50.984;18.204;2023-02-10T16:39:18;37.40;;;15.10;;
57309;SDS011;43153;50.984;18.204;2023-02-10T16:41:52;40.80;;;15.90;;
57309;SDS011;43153;50.984;18.204;2023-02-10T16:44:19;38.10;;;14.40;;
57309;SDS011;43153;50.984;18.204;2023-02-10T16:46:48;48.00;;;14.60;;
57309;SDS011;43153;50.984;18.204;2023-02-10T16:49:15;46.40;;;15.30;;
57309;SDS011;43153;50.984;18.204;2023-02-10T16:51:42;40.80;;;15.40;;
57309;SDS011;43153;50.984;18.204;2023-02-10T16:54:09;39.70;;;17.20;;
57309;SDS011;43153;50.984;18.204;2023-02-10T16:56:39;40.10;;;15.90;;
57309;SDS011;43153;50.984;18.204;2023-02-10T16:59:09;45.00;;;16.20;;
57309;SDS011;43153;50.984;18.204;2023-02-10T17:01:40;42.30;;;16.60;;
57309;SDS011;43153;50.984;18.204;2023-02-10T17:04:11;45.20;;;17.30;;
57309;SDS011;43153;50.984;18.204;2023-02-10T17:06:41;45.30;;;19.60;;
57309;SDS011;43153;50.984;18.204;2023-02-10T17:09:15;49.20;;;19.50;;
57309;SDS011;43153;50.984;18.204;2023-02-10T17:11:42;55.20;;;22.40;;
57309;SDS011;43153;50.984;18.204;2023-02-10T17:14:08;48.90;;;19.80;;
57309;SDS011;43153;50.984;18.204;2023-02-10T17:16:35;45.80;;;18.00;;
57309;SDS011;43153;50.984;18.204;2023-02-10T17:19:04;43.30;;;15.60;;
57309;SDS011;43153;50.984;18.204;2023-02-10T17:21:35;43.60;;;17.00;;
57309;SDS011;43153;50.984;18.204;2023-02-10T17:24:04;43.90;;;16.30;;
57309;SDS011;43153;50.984;18.204;2023-02-10T17:26:30;42.90;;;19.60;;
57309;SDS011;43153;50.984;18.204;2023-02-10T17:28:55;48.90;;;19.40;;
57309;SDS011;43153;50.984;18.204;2023-02-10T17:31:24;44.60;;;17.70;;
57309;SDS011;43153;50.984;18.204;2023-02-10T17:33:51;50.40;;;19.30;;
57309;SDS011;43153;50.984;18.204;2023-02-10T17:36:17;58.30;;;22.80;;
57309;SDS011;43153;50.984;18.204;2023-02-10T17:38:52;54.10;;;23.50;;
57309;SDS011;43153;50.984;18.204;2023-02-10T17:41:32;63.70;;;25.50;;
57309;SDS011;43153;50.984;18.204;2023-02-10T17:43:58;52.60;;;20.90;;
57309;SDS011;43153;50.984;18.204;2023-02-10T17:46:25;52.60;;;20.30;;
57309;SDS011;43153;50.984;18.204;2023-02-10T17:48:53;54.30;;;21.20;;
57309;SDS011;43153;50.984;18.204;2023-02-10T17:51:21;53.40;;;19.90;;
57309;SDS011;43153;50.984;18.204;2023-02-10T17:53:50;53.60;;;21.50;;
57309;SDS011;43153;50.984;18.204;2023-02-10T17:56:18;54.10;;;20.30;;
57309;SDS011;43153;50.984;18.204;2023-02-10T17:58:46;50.90;;;19.20;;
57309;SDS011;43153;50.984;18.204;2023-02-10T18:01:23;41.20;;;17.80;;
57309;SDS011;43153;50.984;18.204;2023-02-10T18:03:54;48.60;;;18.10;;
57309;SDS011;43153;50.984;18.204;2023-02-10T18:06:21;49.80;;;18.80;;
57309;SDS011;43153;50.984;18.204;2023-02-10T18:08:47;45.60;;;18.60;;
57309;SDS011;43153;50.984;18.204;2023-02-10T18:11:15;49.00;;;19.20;;
57309;SDS011;43153;50.984;18.204;2023-02-10T18:13:43;55.80;;;21.70;;
57309;SDS011;43153;50.984;18.204;2023-02-10T18:16:10;49.60;;;21.70;;
57309;SDS011;43153;50.984;18.204;2023-02-10T18:18:38;50.20;;;23.10;;
57309;SDS011;43153;50.984;18.204;2023-02-10T18:21:03;52.30;;;22.80;;
57309;SDS011;43153;50.984;18.204;2023-02-10T18:23:32;48.10;;;21.30;;
57309;SDS011;43153;50.984;18.204;2023-02-10T18:26:00;53.60;;;21.50;;
57309;SDS011;43153;50.984;18.204;2023-02-10T18:28:25;53.00;;;23.20;;
57309;SDS011;43153;50.984;18.204;2023-02-10T18:30:51;55.60;;;24.80;;
57309;SDS011;43153;50.984;18.204;2023-02-10T18:33:17;54.30;;;23.90;;
57309;SDS011;43153;50.984;18.204;2023-02-10T18:35:42;56.90;;;24.80;;